Data for 08/23/2007

Time Sea-Level Adjusted Pressure Absolute Pressure Temperature Relative Humidity Dew Point   
(mb) (inHg) (mb) (inHg) (C) (F) (%) (C) (F)
00:05 1018 30.06 847 25.01 13.3 56 48 2.7 36.9
00:10 1018 30.06 847 25.01 13.3 55.9 48 2.7 36.8
00:15 1018 30.06 847 25.01 13.3 55.9 48 2.6 36.7
00:20 1018 30.06 847 25.01 13.3 55.9 48 2.7 36.9
00:25 1018 30.06 847 25.01 13.2 55.7 49 2.6 36.8
00:30 1018 30.06 847 25.01 13.2 55.7 49 2.6 36.8
00:35 1018 30.06 847 25.01 13.2 55.8 48 2.6 36.8
00:40 1018 30.06 847 25.01 13.3 55.9 48 2.6 36.7
00:45 1018 30.06 847 25.01 13.3 55.9 48 2.6 36.7
00:50 1018 30.06 847 25.01 13.3 56 48 2.5 36.5
00:55 1018 30.06 847 25.01 13.4 56.2 48 2.6 36.7
01:00 1018 30.06 847 25.01 13.4 56.1 47 2.5 36.6
01:05 1018 30.06 847 25.01 13.4 56.1 48 2.7 36.8
01:10 1018 30.06 847 25.01 13.3 56 48 2.6 36.7
01:15 1018 30.06 847 25.01 13.2 55.8 48 2.6 36.8
01:20 1018 30.06 847 25.01 13.2 55.7 48 2.6 36.6
01:25 1018 30.06 847 25.01 13.2 55.7 49 2.6 36.8
01:30 1018 30.06 847 25.01 13.1 55.7 49 2.6 36.7
01:35 1018 30.06 847 25.01 13 55.5 49 2.7 36.8
01:40 1018 30.06 847 25.01 13 55.3 49 2.6 36.8
01:45 1018 30.06 847 25.01 12.8 55.1 50 2.7 36.9
01:50 1018 30.06 847 25.01 12.8 55 50 2.6 36.7
01:55 1018 30.06 847 25.01 13 55.4 49 2.6 36.7
02:00 1018 30.06 847 25.01 13 55.5 49 2.7 36.9
02:05 1018 30.06 847 25.01 13 55.5 49 2.7 36.9
02:10 1018 30.06 847 25.01 13 55.3 49 2.7 36.9
02:15 1018 30.06 847 25.01 13 55.4 49 2.7 36.8
02:20 1018 30.06 847 25.01 13 55.4 50 2.8 37
02:25 1018 30.06 847 25.01 12.9 55.3 50 2.8 37.1
02:30 1018 30.06 847 25.01 12.8 55.1 50 2.8 37.1
02:35 1018 30.06 847 25.01 12.6 54.7 51 2.8 37.1
02:40 1018 30.06 847 25.01 12.5 54.6 51 2.8 37.1
02:45 1018 30.06 847 25.01 12.4 54.4 52 2.8 37.1
02:50 1018 30.06 847 25.01 12.3 54.1 53 2.9 37.3
02:55 1018 30.06 847 25.01 11.9 53.4 54 2.9 37.2
03:00 1018 30.06 847 25.01 11.7 53.1 54 2.8 37
03:05 1018 30.06 847 25.01 11.9 53.4 53 2.8 37
03:10 1018 30.06 847 25.01 11.9 53.3 54 3 37.5
03:15 1018 30.06 847 25.01 11.6 52.8 55 3 37.4
03:20 1018 30.06 847 25.01 11.5 52.7 55 2.9 37.2
03:25 1018 30.06 847 25.01 11.4 52.6 56 2.9 37.2
03:30 1018 30.06 847 25.01 11.2 52.2 57 3 37.5
03:35 1018 30.06 847 25.01 10.9 51.7 58 3 37.4
03:40 1018 30.06 847 25.01 10.8 51.4 58 2.9 37.2
03:45 1018 30.06 847 25.01 10.7 51.2 58 2.9 37.2
03:50 1018 30.06 847 25.01 10.6 51.1 59 2.9 37.3
03:55 1018 30.06 847 25.01 10.5 50.9 60 3 37.5
04:00 1018 30.06 847 25.01 10.2 50.3 61 3.1 37.5
04:05 1018 30.06 847 25.01 10 50 61 2.9 37.2
04:10 1018 30.06 847 25.01 9.8 49.7 62 2.9 37.3
04:15 1018 30.06 847 25.01 9.6 49.2 63 2.9 37.2
04:20 1018 30.06 847 25.01 9.5 49.2 63 2.9 37.2
04:25 1018 30.06 847 25.01 9.5 49.1 63 2.9 37.1
04:30 1018 30.06 847 25.01 9.6 49.2 62 2.8 37
04:35 1018 30.06 847 25.01 9.6 49.3 62 2.8 37.1
04:40 1018 30.06 847 25.01 9.7 49.5 62 2.8 37.1
04:45 1018 30.06 847 25.01 9.7 49.5 62 2.9 37.3
04:50 1018 30.06 847 25.01 9.7 49.4 63 2.9 37.2
04:55 1018 30.06 847 25.01 9.6 49.4 63 2.9 37.2
05:00 1017 30.03 847 25.01 9.5 49.1 63 2.8 37.1
05:05 1018 30.06 847 25.01 9.6 49.3 63 2.8 37.1
05:10 1018 30.06 847 25.01 9.7 49.4 62 2.8 37.1
05:15 1018 30.06 847 25.01 9.6 49.3 63 3 37.4
05:20 1018 30.06 847 25.01 9.4 48.9 64 3 37.4
05:25 1018 30.06 847 25.01 9.3 48.8 65 3 37.4
05:30 1018 30.06 847 25.01 9.3 48.7 65 3 37.4
05:35 1018 30.06 847 25.01 9.3 48.7 65 3 37.5
05:40 1018 30.06 847 25.01 9.2 48.5 65 3.1 37.5
05:45 1018 30.06 847 25.01 9.1 48.4 66 3.1 37.6
05:50 1018 30.06 847 25.01 9 48.3 66 2.9 37.3
05:55 1018 30.06 847 25.01 9 48.2 66 3.1 37.5
06:00 1018 30.06 847 25.01 8.9 48.1 66 3 37.3
06:05 1018 30.06 847 25.01 8.7 47.7 67 3 37.4
06:10 1018 30.06 847 25.01 8.7 47.6 68 3.1 37.5
06:15 1018 30.06 847 25.01 8.8 47.8 67 3 37.4
06:20 1018 30.06 847 25.01 8.9 48 67 3.1 37.5
06:25 1018 30.06 847 25.01 8.8 47.8 67 3.1 37.6
06:30 1018 30.06 847 25.01 8.7 47.7 68 3.1 37.6
06:35 1018 30.06 847 25.01 8.7 47.7 67 3 37.5
06:40 1018 30.06 847 25.01 9 48.2 66 3.1 37.5
06:45 1018 30.06 847 25.01 9.4 48.8 64 3 37.4
06:50 1018 30.06 847 25.01 9.7 49.5 63 3 37.4
06:55 1018 30.06 847 25.01 10 50.1 62 3.1 37.5
07:00 1018 30.06 847 25.01 10.4 50.6 60 3 37.4
07:05 1018 30.06 847 25.01 10.6 51.1 60 3.2 37.7
07:10 1018 30.06 847 25.01 10.8 51.4 59 3.2 37.7
07:15 1018 30.06 847 25.01 11.1 51.9 58 3.1 37.7
07:20 1018 30.06 847 25.01 11.3 52.3 58 3.3 38
07:25 1018 30.06 847 25.01 11.4 52.5 57 3.3 37.9
07:30 1018 30.06 847 25.01 11.5 52.7 57 3.2 37.8
07:35 1018 30.06 847 25.01 11.7 53 56 3.2 37.7
07:40 1018 30.06 847 25.01 11.7 53 56 3.3 38
07:45 1018 30.06 847 25.01 11.7 53.1 55 3.2 37.7
07:50 1018 30.06 847 25.01 11.9 53.4 55 3.2 37.7
07:55 1018 30.06 847 25.01 12 53.6 55 3.3 37.9
08:00 1018 30.06 847 25.01 12.1 53.8 54 3.2 37.8
08:05 1018 30.06 847 25.01 12.4 54.3 54 3.4 38.2
08:10 1018 30.06 847 25.01 12.6 54.7 53 3.4 38.2
08:15 1018 30.06 847 25.01 12.7 54.8 52 3.3 37.9
08:20 1018 30.06 847 25.01 12.7 54.9 53 3.4 38.1
08:25 1018 30.06 847 25.01 12.9 55.1 52 3.3 38
08:30 1018 30.06 847 25.01 13.2 55.7 51 3.3 37.9
08:35 1018 30.06 847 25.01 13.3 56 51 3.6 38.4
08:40 1018 30.06 847 25.01 13.4 56.1 51 3.5 38.4
08:45 1018 30.06 847 25.01 13.7 56.7 49 3.3 38
08:50 1018 30.06 847 25.01 13.9 57 49 3.5 38.2
08:55 1018 30.06 847 25.01 14.2 57.5 47 3 37.4
09:00 1018 30.06 847 25.01 14.3 57.7 47 3.2 37.8
09:05 1018 30.06 847 25.01 14.3 57.7 47 3.3 37.9
09:10 1018 30.06 847 25.01 14.4 57.8 48 3.6 38.4
09:15 1018 30.06 847 25.01 14.6 58.3 46 3.4 38.1
09:20 1018 30.06 847 25.01 14.9 58.8 45 3.3 37.9
09:25 1018 30.06 847 25.01 15 59 46 3.5 38.2
09:30 1018 30.06 847 25.01 15.1 59.2 45 3.5 38.3
09:35 1018 30.06 847 25.01 15.3 59.5 47 4.1 39.3
09:40 1018 30.06 847 25.01 15 59 48 4.1 39.4
09:45 1018 30.06 847 25.01 14.9 58.7 48 4 39.3
09:50 1018 30.06 847 25.01 15.3 59.6 46 3.9 39.1
09:55 1018 30.06 847 25.01 15.3 59.5 47 4 39.3
10:00 1018 30.06 847 25.01 15.4 59.7 45 3.5 38.3
10:05 1018 30.06 847 25.01 15.5 60 44 3.4 38
10:10 1018 30.06 847 25.01 16.1 60.9 44 3.9 39.1
10:15 1018 30.06 847 25.01 16.3 61.3 43 3.8 38.8
10:20 1018 30.06 847 25.01 16.1 61.1 43 3.7 38.6
10:25 1018 30.06 847 25.01 16.5 61.7 43 4 39.2
10:30 1018 30.06 847 25.01 16.7 62.1 41 3.5 38.2
10:35 1018 30.06 847 25.01 16.4 61.5 42 3.6 38.5
10:40 1018 30.06 847 25.01 16.2 61.1 43 3.8 38.9
10:45 1018 30.06 847 25.01 17.1 62.7 41 3.9 39.1
10:50 1018 30.06 847 25.01 17 62.6 41 3.8 38.9
10:55 1018 30.06 847 25.01 17.8 64 38 3.5 38.3
11:00 1017 30.03 847 25.01 18.3 65 37 3.5 38.4
11:05 1017 30.03 847 25.01 17.9 64.1 39 3.9 39
11:10 1017 30.03 847 25.01 18.3 65 38 3.9 38.9
11:15 1017 30.03 847 25.01 18.6 65.6 36 3.4 38.1
11:20 1017 30.03 846 24.98 18.7 65.7 37 4 39.2
11:25 1017 30.03 846 24.98 18.7 65.7 36 3.3 38
11:30 1017 30.03 846 24.98 19.1 66.4 36 3.9 39.1
11:35 1017 30.03 846 24.98 19 66.2 35 3.4 38.2
11:40 1017 30.03 846 24.98 19 66.1 35 3.3 38
11:45 1017 30.03 846 24.98 19 66.2 34 3.2 37.7
11:50 1017 30.03 846 24.98 19.8 67.6 35 3.9 39
11:55 1017 30.03 846 24.98 19.8 67.7 35 4.1 39.3
12:00 1017 30.03 846 24.98 20 67.9 33 3.3 37.9
12:05 1017 30.03 846 24.98 20.3 68.6 33 3.7 38.7
12:10 1017 30.03 846 24.98 19.3 66.7 35 3.8 38.8
12:15 1017 30.03 846 24.98 18.5 65.4 37 3.8 38.9
12:20 1017 30.03 846 24.98 19.1 66.4 33 2.7 36.9
12:25 1017 30.03 846 24.98 20.7 69.2 32 3.3 38
12:30 1017 30.03 846 24.98 21.2 70.2 32 4 39.2
12:35 1016 30 846 24.98 20.2 68.3 33 3.5 38.3
12:40 1016 30 846 24.98 20.4 68.7 32 3.2 37.7
12:45 1016 30 845 24.95 21.5 70.8 31 4 39.2
12:50 1016 30 845 24.95 21.5 70.6 30 3.3 37.9
12:55 1016 30 845 24.95 21.5 70.7 31 3.7 38.7
13:00 1016 30 845 24.95 20.9 69.6 32 3.8 38.8
13:05 1016 30 845 24.95 21.4 70.5 30 3.1 37.6
13:10 1016 30 845 24.95 21.6 70.8 29 3.2 37.8
13:15 1016 30 845 24.95 20.6 69.1 30 2.6 36.7
13:20 1016 30 845 24.95 21.2 70.2 29 2.6 36.7
13:25 1016 30 845 24.95 22.7 72.8 27 3.1 37.6
13:30 1016 30 845 24.95 22.7 72.9 26 2.7 36.8
13:35 1016 30 845 24.95 22.6 72.7 27 2.7 36.9
13:40 1015 29.97 845 24.95 23 73.4 26 2.7 36.9
13:45 1015 29.97 845 24.95 22.4 72.4 24 0.9 33.6
13:50 1015 29.97 845 24.95 23.2 73.7 25 2.5 36.4
13:55 1015 29.97 845 24.95 23.3 74 25 2.4 36.3
14:00 1015 29.97 844 24.92 22.4 72.3 25 1.4 34.6
14:05 1015 29.97 844 24.92 22.2 72 23 0.2 32.3
14:10 1015 29.97 844 24.92 23 73.4 21 -0.3 31.5
14:15 1015 29.97 844 24.92 23.8 74.9 21 0.1 32.2
14:20 1015 29.97 844 24.92 24.2 75.6 21 0.9 33.7
14:25 1015 29.97 844 24.92 24.5 76.1 19 -0.2 31.6
14:30 1015 29.97 844 24.92 24.5 76.2 19 -0.2 31.6
14:35 1015 29.97 844 24.92 23.4 74.1 21 0.1 32.2
14:40 1015 29.97 844 24.92 22.3 72.2 21 -1 30.2
14:45 1015 29.97 844 24.92 22.3 72.1 20 -1.3 29.7
14:50 1015 29.97 844 24.92 22.6 72.6 21 -0.9 30.3
14:55 1015 29.97 844 24.92 23.4 74 20 -0.9 30.4
15:00 1015 29.97 844 24.92 23.7 74.6 19 -1.3 29.6
15:05 1015 29.97 844 24.92 24.6 76.2 18 -0.8 30.6
15:10 1015 29.97 844 24.92 25 76.9 20 0.5 33
15:15 1015 29.97 844 24.92 24.4 75.9 20 -0 32
15:20 1015 29.97 844 24.92 23.7 74.7 21 0.5 33
15:25 1015 29.97 844 24.92 23 73.3 22 0 32
15:30 1015 29.97 844 24.92 22.3 72.1 22 -0.5 31.1
15:35 1015 29.97 844 24.92 21.9 71.4 22 -0.8 30.6
15:40 1015 29.97 844 24.92 22.1 71.8 22 -0.3 31.4
15:45 1014 29.94 844 24.92 22.4 72.2 22 -0.1 31.8
15:50 1014 29.94 844 24.92 22.3 72.1 23 0.2 32.3
15:55 1014 29.94 844 24.92 22.4 72.2 23 0.4 32.6
16:00 1014 29.94 844 24.92 22.7 72.8 22 0.3 32.6
16:05 1014 29.94 843 24.89 23.3 73.9 21 0 32.1
16:10 1014 29.94 843 24.89 23.9 74.9 21 0.4 32.7
16:15 1014 29.94 843 24.89 24.3 75.7 20 -0 31.9
16:20 1014 29.94 843 24.89 24.1 75.4 20 0.1 32.2
16:25 1014 29.94 843 24.89 23.4 74.2 22 0.6 33.1
16:30 1014 29.94 843 24.89 22.7 72.9 22 -0.1 31.8
16:35 1014 29.94 843 24.89 22.7 72.9 22 -0.2 31.7
16:40 1014 29.94 843 24.89 23.2 73.8 20 -0.6 30.9
16:45 1014 29.94 843 24.89 23.8 74.9 20 -0.5 31.1
16:50 1014 29.94 843 24.89 23.6 74.5 21 0.2 32.4
16:55 1014 29.94 843 24.89 23 73.4 22 0.4 32.8
17:00 1014 29.94 843 24.89 22.4 72.2 22 -0.1 31.8
17:05 1014 29.94 843 24.89 22 71.5 22 -0.3 31.4
17:10 1014 29.94 843 24.89 22.1 71.8 22 -0.7 30.8
17:15 1014 29.94 843 24.89 22.3 72.1 23 0.2 32.4
17:20 1014 29.94 843 24.89 22.6 72.6 23 0.4 32.8
17:25 1014 29.94 843 24.89 22.1 71.8 24 1 33.9
17:30 1014 29.94 843 24.89 22.3 72.1 24 0.8 33.5
17:35 1014 29.94 843 24.89 22.4 72.2 24 1 33.8
17:40 1014 29.94 843 24.89 22 71.6 23 0.4 32.7
17:45 1014 29.94 843 24.89 21.9 71.4 24 0.5 32.8
17:50 1014 29.94 843 24.89 21.8 71.2 26 1.8 35.3
17:55 1014 29.94 843 24.89 21 69.9 29 2.7 36.9
18:00 1014 29.94 843 24.89 20.5 68.9 29 2.1 35.8
18:05 1014 29.94 843 24.89 20.1 68.3 30 2 35.6
18:10 1014 29.94 844 24.92 19.8 67.7 30 1.9 35.5
18:15 1015 29.97 844 24.92 19.5 67.1 30 1.8 35.2
18:20 1015 29.97 844 24.92 19.4 66.9 32 2.5 36.5
18:25 1015 29.97 844 24.92 19.3 66.8 32 2.4 36.4
18:30 1015 29.97 844 24.92 19 66.1 32 2.2 35.9
18:35 1015 29.97 844 24.92 18.8 65.8 32 1.8 35.3
18:40 1015 29.97 844 24.92 18.8 65.9 32 2 35.7
18:45 1015 29.97 844 24.92 18.7 65.6 31 1.2 34.2
18:50 1015 29.97 844 24.92 18.2 64.7 31 1.1 34
18:55 1015 29.97 844 24.92 17.9 64.3 34 1.9 35.5
19:00 1015 29.97 844 24.92 17.7 63.8 38 3.2 37.8
19:05 1015 29.97 844 24.92 17.1 62.9 40 3.4 38.1
19:10 1015 29.97 844 24.92 17 62.7 40 3.4 38.1
19:15 1015 29.97 844 24.92 17.1 62.7 40 3.5 38.2
19:20 1015 29.97 845 24.95 17.2 63 39 3.4 38.1
19:25 1016 30 845 24.95 17.1 62.8 39 3.3 38
19:30 1016 30 845 24.95 17.1 62.8 40 3.4 38.2
19:35 1016 30 845 24.95 17.1 62.8 40 3.4 38.2
19:40 1016 30 845 24.95 16.8 62.2 43 4.3 39.8
19:45 1016 30 845 24.95 16.3 61.4 43 3.7 38.7
19:50 1016 30 845 24.95 16.3 61.4 45 4.5 40.1
19:55 1016 30 845 24.95 16.3 61.3 43 3.8 38.9
20:00 1016 30 845 24.95 16.2 61.1 43 3.7 38.7
20:05 1016 30 845 24.95 16.2 61.2 42 3.3 37.9
20:10 1016 30 845 24.95 16.2 61.1 44 3.9 39
20:15 1016 30 846 24.98 16.1 60.9 45 4.3 39.7
20:20 1017 30.03 846 24.98 15.9 60.6 48 5 41
20:25 1017 30.03 846 24.98 15.3 59.6 51 5.5 41.9
20:30 1017 30.03 846 24.98 14.8 58.6 53 5.5 41.9
20:35 1017 30.03 846 24.98 14.2 57.6 63 7.4 45.3
20:40 1017 30.03 846 24.98 14 57.1 61 6.7 44.1
20:45 1016 30 846 24.98 13.5 56.3 66 7.4 45.3
20:50 1016 30 845 24.95 13.1 55.5 63 6.2 43.2
20:55 1016 30 845 24.95 12.9 55.3 65 6.5 43.7
21:00 1017 30.03 846 24.98 12.8 55.1 68 7.1 44.8
21:05 1017 30.03 846 24.98 12.7 54.9 68 7.1 44.8
21:10 1017 30.03 846 24.98 12.6 54.7 69 7.2 45
21:15 1017 30.03 846 24.98 12.5 54.5 71 7.3 45.2
21:20 1017 30.03 846 24.98 12.3 54.1 72 7.4 45.3
21:25 1017 30.03 846 24.98 12.1 53.9 73 7.5 45.5
21:30 1017 30.03 846 24.98 12.1 53.7 72 7.2 45
21:35 1017 30.03 846 24.98 12.1 53.7 73 7.4 45.4
21:40 1017 30.03 846 24.98 12 53.5 72 7.1 44.8
21:45 1017 30.03 846 24.98 12 53.6 73 7.3 45.1
21:50 1017 30.03 846 24.98 11.9 53.4 72 7.1 44.7
21:55 1017 30.03 846 24.98 12 53.5 72 7 44.6
22:00 1017 30.03 846 24.98 12 53.7 72 7.1 44.7
22:05 1017 30.03 846 24.98 12 53.6 71 6.9 44.5
22:10 1017 30.03 846 24.98 12 53.6 72 7.2 44.9
22:15 1017 30.03 846 24.98 12 53.5 72 7.1 44.7
22:20 1017 30.03 846 24.98 11.9 53.5 71 6.8 44.3
22:25 1017 30.03 846 24.98 12 53.5 71 7 44.5
22:30 1017 30.03 846 24.98 11.9 53.4 72 6.9 44.5
22:35 1017 30.03 846 24.98 11.9 53.3 72 7 44.6
22:40 1017 30.03 846 24.98 11.8 53.3 73 7.1 44.8
22:45 1017 30.03 847 25.01 11.7 53.1 73 7 44.5
22:50 1017 30.03 847 25.01 11.5 52.7 74 7.1 44.8
22:55 1017 30.03 847 25.01 11.1 52.1 75 7 44.5
23:00 1017 30.03 847 25.01 11 51.8 75 6.8 44.3
23:05 1017 30.03 847 25.01 11 51.7 75 6.7 44.1
23:10 1017 30.03 847 25.01 11 51.7 76 6.9 44.4
23:15 1018 30.06 847 25.01 10.9 51.6 75 6.8 44.2
23:20 1018 30.06 847 25.01 10.8 51.4 76 6.8 44.2
23:25 1018 30.06 847 25.01 10.7 51.3 76 6.6 43.9
23:30 1018 30.06 847 25.01 10.7 51.3 76 6.6 43.9
23:35 1018 30.06 847 25.01 10.7 51.3 75 6.5 43.8
23:40 1018 30.06 847 25.01 10.7 51.2 76 6.6 43.8
23:45 1018 30.06 847 25.01 10.5 50.9 76 6.6 43.8
23:50 1018 30.06 847 25.01 10.5 50.8 76 6.4 43.6
23:55 1018 30.06 847 25.01 10.4 50.6 76 6.4 43.5
24:00 1018 30.06 847 25.01 10.2 50.4 77 6.4 43.6